Time;durP1;ratioP1;P1;durP2;ratioP2;P2;SDS_P1;SDS_P2;PMS_P1;PMS_P2;Temp;Humidity;BMP_temperature;BMP_pressure;BME280_temperature;BME280_humidity;BME280_pressure;Samples;Min_cycle;Max_cycle;Signal;HPM_P1;HPM_P2
2022/03/06 00:01:26;;;;;;;10.90;7.87;;;2.70;74.60;;;;;;5027051;28;20217;-78
2022/03/06 00:04:15;;;;;;;11.83;7.90;;;2.70;73.40;;;;;;5039200;28;20236;-78
2022/03/06 00:07:05;;;;;;;12.43;7.80;;;2.70;73.20;;;;;;5040396;28;20227;-78
2022/03/06 00:09:55;;;;;;;11.27;7.70;;;2.70;73.40;;;;;;5032185;28;20262;-78
2022/03/06 00:12:44;;;;;;;12.03;7.97;;;2.70;73.60;;;;;;5038075;28;20255;-77
2022/03/06 00:15:33;;;;;;;13.10;7.37;;;2.80;74.00;;;;;;5044198;28;20224;-81
2022/03/06 00:18:21;;;;;;;12.63;8.30;;;2.70;74.00;;;;;;5052338;28;20216;-79
2022/03/06 00:21:13;;;;;;;10.60;7.37;;;2.70;74.70;;;;;;5035162;28;20225;-76
2022/03/06 00:24:02;;;;;;;12.20;7.77;;;2.70;75.00;;;;;;5042378;28;20231;-76
2022/03/06 00:26:51;;;;;;;12.03;8.30;;;2.60;75.40;;;;;;5035196;28;20229;-76
2022/03/06 00:29:40;;;;;;;12.17;7.57;;;2.60;75.10;;;;;;5044583;28;20215;-77
2022/03/06 00:32:29;;;;;;;10.23;8.10;;;2.60;74.50;;;;;;5038732;28;20225;-77
2022/03/06 00:35:17;;;;;;;12.33;7.57;;;2.60;75.00;;;;;;5042912;28;20208;-78
2022/03/06 00:38:06;;;;;;;11.07;6.93;;;2.60;75.10;;;;;;5038302;28;20221;-74
2022/03/06 00:40:55;;;;;;;10.50;7.47;;;2.50;74.70;;;;;;5037182;28;20209;-76
2022/03/06 00:43:45;;;;;;;10.43;7.30;;;2.40;74.30;;;;;;5040748;28;20228;-75
2022/03/06 00:46:33;;;;;;;10.63;7.20;;;2.40;75.00;;;;;;5039825;28;20325;-77
2022/03/06 00:49:22;;;;;;;13.40;8.30;;;2.30;74.90;;;;;;5037426;28;20256;-76
2022/03/06 00:52:10;;;;;;;13.17;7.83;;;2.40;74.40;;;;;;5040281;28;20830;-76
2022/03/06 00:54:59;;;;;;;9.47;7.17;;;2.60;74.50;;;;;;5039138;28;20406;-77
2022/03/06 00:57:51;;;;;;;9.77;7.60;;;2.60;74.30;;;;;;5040740;28;20897;-77
2022/03/06 01:00:44;;;;;;;10.93;7.87;;;2.60;75.00;;;;;;5043503;28;20228;-77
2022/03/06 01:03:33;;;;;;;13.27;8.00;;;2.40;75.30;;;;;;5039249;28;20296;-77
2022/03/06 01:06:22;;;;;;;11.53;7.50;;;2.40;76.10;;;;;;5040887;28;20217;-76
2022/03/06 01:09:12;;;;;;;10.63;7.97;;;2.40;76.00;;;;;;5041889;28;20237;-76
2022/03/06 01:12:01;;;;;;;11.70;7.93;;;2.30;75.70;;;;;;5038546;28;20250;-78
2022/03/06 01:14:50;;;;;;;11.27;7.93;;;2.40;76.20;;;;;;5037333;28;20225;-76
2022/03/06 01:17:40;;;;;;;11.40;7.63;;;2.40;76.20;;;;;;5049763;28;20228;-77
2022/03/06 01:20:29;;;;;;;11.73;7.63;;;2.30;76.00;;;;;;5050730;28;20213;-81
2022/03/06 01:23:18;;;;;;;10.20;7.60;;;2.20;76.10;;;;;;5044569;28;20217;-79
2022/03/06 01:26:06;;;;;;;12.10;8.00;;;2.30;75.90;;;;;;5044842;28;21889;-79
2022/03/06 01:28:55;;;;;;;11.33;8.00;;;2.30;75.40;;;;;;5040106;28;20282;-78
2022/03/06 01:31:44;;;;;;;11.43;8.27;;;2.40;74.50;;;;;;5043672;28;20225;-78
2022/03/06 01:34:33;;;;;;;12.60;8.20;;;2.30;74.90;;;;;;5044166;28;20224;-78
2022/03/06 01:37:22;;;;;;;14.27;8.30;;;2.20;75.10;;;;;;5043715;28;20217;-78
2022/03/06 01:40:13;;;;;;;12.90;8.70;;;2.20;75.40;;;;;;5041911;28;20221;-77
2022/03/06 01:43:01;;;;;;;11.23;7.93;;;2.30;75.60;;;;;;5041404;28;20247;-78
2022/03/06 01:45:50;;;;;;;11.47;7.83;;;2.30;76.00;;;;;;5044681;28;20221;-77
2022/03/06 01:48:39;;;;;;;11.10;8.10;;;2.40;75.50;;;;;;5038995;28;20225;-78
2022/03/06 01:51:28;;;;;;;11.80;7.97;;;2.30;75.40;;;;;;5041526;28;22128;-77
2022/03/06 01:54:17;;;;;;;11.80;8.53;;;2.40;75.00;;;;;;5040474;28;20580;-79
2022/03/06 01:57:07;;;;;;;11.13;8.37;;;2.40;75.70;;;;;;5042565;28;20229;-77
2022/03/06 01:59:56;;;;;;;13.17;9.17;;;2.40;75.80;;;;;;5043838;28;20949;-78
2022/03/06 02:02:45;;;;;;;12.20;9.03;;;2.40;76.50;;;;;;5035938;28;20225;-77
2022/03/06 02:05:34;;;;;;;13.33;9.07;;;2.40;76.00;;;;;;5037761;28;20799;-77
2022/03/06 02:08:24;;;;;;;12.70;8.77;;;2.40;76.80;;;;;;5042556;28;20271;-78
2022/03/06 02:11:14;;;;;;;11.30;8.60;;;2.40;75.50;;;;;;5036280;28;20240;-77
2022/03/06 02:14:03;;;;;;;11.30;8.13;;;2.40;75.90;;;;;;5048185;28;20224;-77
2022/03/06 02:16:55;;;;;;;13.10;8.47;;;2.40;75.30;;;;;;5037903;28;20237;-78
2022/03/06 02:19:55;;;;;;;13.43;8.27;;;2.30;76.40;;;;;;5039935;28;20217;-77
2022/03/06 02:22:46;;;;;;;12.67;8.57;;;2.30;77.00;;;;;;5055484;28;20228;-75
2022/03/06 02:25:37;;;;;;;13.20;8.20;;;2.20;77.40;;;;;;5053022;28;20228;-78
2022/03/06 02:28:26;;;;;;;12.23;8.53;;;2.20;78.00;;;;;;5039585;28;20252;-78
2022/03/06 02:31:15;;;;;;;13.53;8.60;;;2.20;79.10;;;;;;5041636;28;20461;-78
2022/03/06 02:34:04;;;;;;;13.63;8.90;;;2.20;79.40;;;;;;5040949;28;20617;-77
2022/03/06 02:36:53;;;;;;;13.57;8.67;;;2.20;80.00;;;;;;5038836;28;20225;-77
2022/03/06 02:39:44;;;;;;;12.53;8.97;;;2.20;80.10;;;;;;5042337;28;20217;-78
2022/03/06 02:42:34;;;;;;;12.53;8.37;;;2.30;79.00;;;;;;5041611;28;20225;-78
2022/03/06 02:45:28;;;;;;;11.23;8.23;;;2.40;77.80;;;;;;5041795;28;20224;-79
2022/03/06 02:48:17;;;;;;;12.00;8.23;;;2.30;77.20;;;;;;5038352;28;20221;-78
2022/03/06 02:51:06;;;;;;;9.53;7.80;;;2.40;76.30;;;;;;5042823;28;20343;-78
2022/03/06 02:53:55;;;;;;;14.00;8.97;;;2.50;76.10;;;;;;5043898;28;20217;-79
2022/03/06 02:56:45;;;;;;;13.00;8.60;;;2.30;76.40;;;;;;5039501;28;21125;-77
2022/03/06 02:59:34;;;;;;;14.27;8.60;;;2.20;78.70;;;;;;5036923;28;20217;-78
2022/03/06 03:02:23;;;;;;;11.40;7.73;;;2.30;78.00;;;;;;5040922;28;20363;-79
2022/03/06 03:05:12;;;;;;;9.97;6.73;;;2.30;78.40;;;;;;5044565;28;20234;-78
2022/03/06 03:08:01;;;;;;;9.87;6.17;;;2.20;77.00;;;;;;5048318;28;20213;-77
2022/03/06 03:10:50;;;;;;;9.40;6.83;;;2.20;75.10;;;;;;5042188;28;20221;-77
2022/03/06 03:13:40;;;;;;;9.90;6.30;;;2.20;75.90;;;;;;5053210;28;20229;-78
2022/03/06 03:16:29;;;;;;;11.00;6.60;;;2.20;76.10;;;;;;5040886;28;20227;-78
2022/03/06 03:19:19;;;;;;;11.27;6.87;;;2.30;76.50;;;;;;5041223;28;20771;-78
2022/03/06 03:22:07;;;;;;;10.33;6.80;;;2.20;75.70;;;;;;5044961;28;20228;-77
2022/03/06 03:24:56;;;;;;;10.47;6.97;;;2.30;75.20;;;;;;5035445;28;20221;-76
2022/03/06 03:27:44;;;;;;;8.47;6.63;;;2.30;75.30;;;;;;5036578;28;20240;-76
2022/03/06 03:30:42;;;;;;;11.20;6.73;;;2.20;75.30;;;;;;5040188;28;20283;-77
2022/03/06 03:33:30;;;;;;;12.23;6.63;;;2.20;75.40;;;;;;5038976;28;20527;-77
2022/03/06 03:36:19;;;;;;;9.80;6.40;;;2.30;75.00;;;;;;5037213;28;20225;-76
2022/03/06 03:39:08;;;;;;;9.07;6.40;;;2.20;74.60;;;;;;5038564;28;20229;-77
2022/03/06 03:41:57;;;;;;;9.30;6.13;;;2.20;75.00;;;;;;5040784;28;20257;-77
2022/03/06 03:44:46;;;;;;;9.20;6.07;;;2.30;74.30;;;;;;5034025;28;20228;-77
2022/03/06 03:47:36;;;;;;;8.63;5.70;;;2.20;73.80;;;;;;5039164;28;20331;-78
2022/03/06 03:50:25;;;;;;;10.40;5.97;;;2.20;75.20;;;;;;5036974;28;20228;-76
2022/03/06 03:53:13;;;;;;;8.70;5.93;;;2.20;74.70;;;;;;5035353;28;20303;-76
2022/03/06 03:56:04;;;;;;;11.03;6.30;;;2.20;75.00;;;;;;5040915;28;20233;-79
2022/03/06 03:58:52;;;;;;;8.63;5.43;;;2.30;75.30;;;;;;5042010;28;21043;-79
2022/03/06 04:01:41;;;;;;;8.43;5.57;;;2.30;73.30;;;;;;5056765;28;20225;-77
2022/03/06 04:04:35;;;;;;;8.93;5.93;;;2.30;73.30;;;;;;5039768;28;20235;-76
2022/03/06 04:07:24;;;;;;;10.73;6.30;;;2.30;73.90;;;;;;5034019;28;20266;-77
2022/03/06 04:10:13;;;;;;;7.60;5.80;;;2.30;74.50;;;;;;5038357;28;20557;-77
2022/03/06 04:13:01;;;;;;;7.87;5.80;;;2.30;74.50;;;;;;5036020;28;20229;-77
2022/03/06 04:15:50;;;;;;;9.33;5.30;;;2.20;74.10;;;;;;5047858;28;20312;-76
2022/03/06 04:18:39;;;;;;;9.27;5.63;;;2.20;73.50;;;;;;5054505;28;20236;-76
2022/03/06 04:21:29;;;;;;;7.73;5.60;;;2.10;73.50;;;;;;5038561;28;20669;-76
2022/03/06 04:24:17;;;;;;;7.30;5.10;;;2.20;74.10;;;;;;5037376;28;20217;-76
2022/03/06 04:27:10;;;;;;;10.57;5.13;;;2.20;73.90;;;;;;5039884;28;20228;-77
2022/03/06 04:30:02;;;;;;;8.40;5.47;;;2.10;73.90;;;;;;5037258;28;20209;-76
2022/03/06 04:32:51;;;;;;;7.10;5.20;;;2.20;74.10;;;;;;5040405;28;20216;-76
2022/03/06 04:35:40;;;;;;;10.83;5.80;;;2.00;73.40;;;;;;5041653;28;20221;-76
2022/03/06 04:38:30;;;;;;;9.30;5.60;;;2.10;74.10;;;;;;5040030;28;20221;-76
2022/03/06 04:41:19;;;;;;;8.80;5.97;;;2.20;73.80;;;;;;5042141;28;20821;-77
2022/03/06 04:44:07;;;;;;;8.97;5.77;;;2.20;74.80;;;;;;5037148;28;20228;-76
2022/03/06 04:46:56;;;;;;;9.33;5.30;;;2.20;74.90;;;;;;5037775;28;20590;-77
2022/03/06 04:49:45;;;;;;;8.83;5.20;;;2.10;75.30;;;;;;5037318;28;20224;-77
2022/03/06 04:52:34;;;;;;;8.17;4.57;;;2.10;74.50;;;;;;5036885;28;20244;-76
2022/03/06 04:55:24;;;;;;;10.27;5.47;;;2.10;73.80;;;;;;5039228;28;20307;-75
2022/03/06 04:58:16;;;;;;;7.50;4.80;;;2.10;74.10;;;;;;5036906;28;20223;-76
2022/03/06 05:01:06;;;;;;;7.83;5.47;;;2.10;74.50;;;;;;5040242;28;20233;-76
2022/03/06 05:03:56;;;;;;;7.80;5.37;;;2.20;73.80;;;;;;5039227;28;20267;-77
2022/03/06 05:06:45;;;;;;;9.40;5.67;;;2.10;73.80;;;;;;5037238;28;20270;-76
2022/03/06 05:09:33;;;;;;;6.97;5.10;;;2.20;73.50;;;;;;5047758;28;20217;-76
2022/03/06 05:12:24;;;;;;;8.73;4.93;;;2.20;74.00;;;;;;5039372;28;20302;-77
2022/03/06 05:15:14;;;;;;;8.03;5.07;;;2.20;74.00;;;;;;5033560;28;20292;-77
2022/03/06 05:18:03;;;;;;;8.10;5.27;;;2.10;74.60;;;;;;5032149;28;20669;-75
2022/03/06 05:20:52;;;;;;;7.57;5.13;;;2.10;74.60;;;;;;5035294;28;20228;-75
2022/03/06 05:23:41;;;;;;;6.80;4.97;;;2.10;74.90;;;;;;5037271;28;20217;-76
2022/03/06 05:26:29;;;;;;;9.20;5.27;;;2.10;73.10;;;;;;5038635;28;20216;-77
2022/03/06 05:29:19;;;;;;;7.70;5.00;;;2.20;71.80;;;;;;5035524;28;20867;-77
2022/03/06 05:32:08;;;;;;;10.43;5.30;;;2.30;71.90;;;;;;5031968;28;20224;-75
2022/03/06 05:34:57;;;;;;;7.77;4.90;;;2.20;72.50;;;;;;5035334;28;20220;-75
2022/03/06 05:37:46;;;;;;;7.73;5.40;;;2.20;72.90;;;;;;5039591;28;20312;-75
2022/03/06 05:40:38;;;;;;;11.53;6.07;;;2.20;73.80;;;;;;5035756;28;20596;-75
2022/03/06 05:43:31;;;;;;;7.47;5.50;;;2.20;74.10;;;;;;5036387;28;20320;-75
2022/03/06 05:46:21;;;;;;;9.40;5.07;;;2.10;73.80;;;;;;5039635;28;20213;-77
2022/03/06 05:49:13;;;;;;;7.40;4.93;;;2.10;74.00;;;;;;5037181;28;20224;-76
2022/03/06 05:52:03;;;;;;;7.53;5.10;;;2.30;73.90;;;;;;5037811;28;20290;-77
2022/03/06 05:54:56;;;;;;;7.83;5.10;;;2.30;73.50;;;;;;5036854;28;20608;-77
2022/03/06 05:57:45;;;;;;;8.50;5.63;;;2.30;74.50;;;;;;5036461;28;20217;-77
2022/03/06 06:00:34;;;;;;;8.50;5.47;;;2.30;74.60;;;;;;5035356;28;20229;-76
2022/03/06 06:03:28;;;;;;;11.27;6.70;;;2.30;75.00;;;;;;5034038;28;20221;-76
2022/03/06 06:06:17;;;;;;;11.70;7.40;;;2.30;75.10;;;;;;5036739;28;20221;-76
2022/03/06 06:09:10;;;;;;;7.73;5.47;;;2.20;75.10;;;;;;5042881;28;20233;-75
2022/03/06 06:11:58;;;;;;;7.33;5.40;;;2.20;74.30;;;;;;5050891;28;20711;-76
2022/03/06 06:14:47;;;;;;;9.20;5.87;;;2.30;75.20;;;;;;5042533;28;20252;-74
2022/03/06 06:17:37;;;;;;;8.27;5.43;;;2.40;74.60;;;;;;5040381;28;20300;-76
2022/03/06 06:20:27;;;;;;;9.13;5.63;;;2.40;75.20;;;;;;5040425;28;20226;-75
2022/03/06 06:23:16;;;;;;;9.73;5.80;;;2.40;74.50;;;;;;5038077;28;20228;-76
2022/03/06 06:26:05;;;;;;;10.03;6.00;;;2.40;74.50;;;;;;5041084;28;20221;-75
2022/03/06 06:28:56;;;;;;;9.23;5.90;;;2.40;74.50;;;;;;5043109;28;20225;-75
2022/03/06 06:31:44;;;;;;;8.73;5.57;;;2.30;74.50;;;;;;5051854;28;20319;-75
2022/03/06 06:34:33;;;;;;;8.70;5.70;;;2.30;74.00;;;;;;5038101;28;20575;-76
2022/03/06 06:37:23;;;;;;;12.97;6.80;;;2.30;73.70;;;;;;5038756;28;20222;-75
2022/03/06 06:40:12;;;;;;;9.27;6.60;;;2.40;73.70;;;;;;5051315;28;20731;-76
2022/03/06 06:43:00;;;;;;;9.40;6.20;;;2.30;74.10;;;;;;5049173;28;20219;-76
2022/03/06 06:45:49;;;;;;;8.63;5.63;;;2.20;73.40;;;;;;5036963;28;20304;-75
2022/03/06 06:48:37;;;;;;;9.37;6.50;;;2.20;74.00;;;;;;5039840;28;20212;-77
2022/03/06 06:51:27;;;;;;;8.47;5.97;;;2.40;74.50;;;;;;5050527;28;20236;-75
2022/03/06 06:54:17;;;;;;;10.50;6.23;;;2.40;73.90;;;;;;5041852;28;20232;-76
2022/03/06 06:57:05;;;;;;;9.83;5.80;;;2.50;74.00;;;;;;5041199;28;20217;-77
2022/03/06 06:59:54;;;;;;;9.30;5.93;;;2.70;73.80;;;;;;5037605;28;20556;-77
2022/03/06 07:02:44;;;;;;;11.03;5.93;;;2.90;73.00;;;;;;5039393;28;20225;-75
2022/03/06 07:05:33;;;;;;;8.47;5.93;;;2.80;72.60;;;;;;5041201;28;20222;-77
2022/03/06 07:08:22;;;;;;;8.97;5.90;;;2.50;72.50;;;;;;5027294;28;20221;-79
2022/03/06 07:11:12;;;;;;;9.57;6.10;;;2.80;73.30;;;;;;5044046;28;20237;-79
2022/03/06 07:14:00;;;;;;;8.13;5.90;;;2.90;71.70;;;;;;5054180;28;20221;-80
2022/03/06 07:16:52;;;;;;;10.20;6.20;;;2.60;72.20;;;;;;5050877;28;20367;-79
2022/03/06 07:19:41;;;;;;;9.97;6.00;;;2.60;71.40;;;;;;5037452;28;20233;-78
2022/03/06 07:22:30;;;;;;;10.83;5.97;;;2.80;71.10;;;;;;5036765;28;20315;-78
2022/03/06 07:25:19;;;;;;;9.37;6.60;;;2.90;71.40;;;;;;5041791;28;20313;-77
2022/03/06 07:28:09;;;;;;;9.83;6.50;;;2.90;71.30;;;;;;5041267;28;20217;-77
2022/03/06 07:30:58;;;;;;;10.43;6.00;;;2.80;71.50;;;;;;5049351;28;20226;-77
2022/03/06 07:33:46;;;;;;;10.10;6.73;;;2.80;71.50;;;;;;5039968;28;20802;-76
2022/03/06 07:36:35;;;;;;;9.63;6.23;;;3.10;71.20;;;;;;5040643;28;20268;-78
2022/03/06 07:39:24;;;;;;;8.97;6.10;;;3.10;72.30;;;;;;5036912;28;20233;-78
2022/03/06 07:42:13;;;;;;;9.60;6.20;;;3.10;71.00;;;;;;5038504;28;20231;-78
2022/03/06 07:45:04;;;;;;;8.30;5.93;;;3.20;70.40;;;;;;5038249;28;20241;-78
2022/03/06 07:47:52;;;;;;;8.30;5.83;;;3.20;69.50;;;;;;5035827;28;20311;-76
2022/03/06 07:50:42;;;;;;;10.17;6.70;;;3.20;70.10;;;;;;5037575;28;20230;-76
2022/03/06 07:53:30;;;;;;;11.17;6.73;;;3.30;69.60;;;;;;5048757;28;20222;-76
2022/03/06 07:56:19;;;;;;;9.37;6.47;;;3.60;68.20;;;;;;5035439;28;20238;-77
2022/03/06 07:59:07;;;;;;;10.67;7.23;;;3.90;67.50;;;;;;5037680;28;20545;-76
2022/03/06 08:01:58;;;;;;;11.37;6.63;;;4.00;67.20;;;;;;5034514;28;20225;-75
2022/03/06 08:04:47;;;;;;;10.10;6.70;;;4.10;66.80;;;;;;5048985;28;20240;-76
2022/03/06 08:07:35;;;;;;;10.70;7.30;;;4.10;66.20;;;;;;5035328;28;20219;-76
2022/03/06 08:10:24;;;;;;;10.37;6.67;;;4.00;66.20;;;;;;5028976;28;20742;-77
2022/03/06 08:13:13;;;;;;;10.17;6.90;;;3.90;66.60;;;;;;5038220;28;20328;-78
2022/03/06 08:16:02;;;;;;;12.27;7.27;;;3.90;67.50;;;;;;5051584;28;20242;-77
2022/03/06 08:18:52;;;;;;;10.77;7.30;;;3.70;68.10;;;;;;5037340;28;20322;-77
2022/03/06 08:21:42;;;;;;;10.27;7.30;;;3.80;68.50;;;;;;5048449;28;20230;-79
2022/03/06 08:24:31;;;;;;;11.77;7.33;;;4.10;67.90;;;;;;5037679;28;20716;-79
2022/03/06 08:27:19;;;;;;;10.10;6.90;;;4.70;68.00;;;;;;5038441;28;20224;-80
2022/03/06 08:30:09;;;;;;;15.00;7.90;;;4.60;64.50;;;;;;5040272;28;20540;-80
2022/03/06 08:32:57;;;;;;;13.97;7.13;;;4.50;65.10;;;;;;5037401;28;20223;-77
2022/03/06 08:35:51;;;;;;;16.93;10.60;;;4.50;65.80;;;;;;5032924;28;20219;-77
2022/03/06 08:38:40;;;;;;;13.00;6.93;;;4.50;66.50;;;;;;5038808;28;20226;-80
2022/03/06 08:41:28;;;;;;;12.43;8.80;;;8.50;62.90;;;;;;5038710;28;20221;-79
2022/03/06 08:44:17;;;;;;;11.10;7.63;;;10.20;55.80;;;;;;5044057;28;20221;-79
2022/03/06 08:47:06;;;;;;;10.53;7.13;;;10.60;53.90;;;;;;5053417;28;20994;-80
2022/03/06 08:49:54;;;;;;;10.60;7.57;;;11.50;52.40;;;;;;5037972;28;21379;-80
2022/03/06 08:52:44;;;;;;;10.17;7.00;;;10.80;52.30;;;;;;5038885;28;20247;-80
2022/03/06 08:55:33;;;;;;;12.53;7.87;;;10.30;53.40;;;;;;5051141;28;20591;-81
2022/03/06 08:58:22;;;;;;;10.20;6.77;;;12.40;50.30;;;;;;5041583;28;20244;-81
2022/03/06 09:01:11;;;;;;;13.83;7.43;;;10.30;49.00;;;;;;5039492;28;20239;-79
2022/03/06 09:04:00;;;;;;;11.80;7.90;;;8.10;53.60;;;;;;5040388;28;20240;-81
2022/03/06 09:06:54;;;;;;;10.07;7.40;;;7.20;56.00;;;;;;5039615;28;20249;-82
2022/03/06 09:09:46;;;;;;;11.07;7.57;;;6.40;57.80;;;;;;5036748;28;20275;-82
2022/03/06 09:12:34;;;;;;;11.87;8.40;;;5.80;59.20;;;;;;5038111;28;20964;-80
2022/03/06 09:15:23;;;;;;;12.73;8.53;;;5.40;60.10;;;;;;5043008;28;20273;-82
2022/03/06 09:18:14;;;;;;;13.50;8.63;;;5.10;61.20;;;;;;5039188;28;20247;-78
2022/03/06 09:21:03;;;;;;;10.23;7.63;;;5.10;62.10;;;;;;5042455;28;20253;-81
2022/03/06 09:23:52;;;;;;;14.80;9.17;;;5.20;62.60;;;;;;5052071;28;20232;-80
2022/03/06 09:26:43;;;;;;;18.43;10.37;;;5.10;62.80;;;;;;5036002;28;20213;-82
2022/03/06 09:29:32;;;;;;;14.23;10.00;;;5.20;62.00;;;;;;5041628;28;20332;-80
2022/03/06 09:32:21;;;;;;;17.73;9.77;;;5.00;62.80;;;;;;5037833;28;20220;-81
2022/03/06 09:35:10;;;;;;;11.47;7.50;;;4.70;63.40;;;;;;5040339;28;20235;-80
2022/03/06 09:38:04;;;;;;;11.17;7.80;;;5.10;62.00;;;;;;5037926;28;20220;-81
2022/03/06 09:40:55;;;;;;;15.87;8.47;;;5.30;61.00;;;;;;5041215;28;20224;-80
2022/03/06 09:43:49;;;;;;;11.90;8.37;;;5.30;61.20;;;;;;5045091;28;20221;-81
2022/03/06 09:46:38;;;;;;;14.17;9.43;;;5.10;62.40;;;;;;5046033;28;20247;-79
2022/03/06 09:49:27;;;;;;;13.53;8.00;;;4.90;63.40;;;;;;5042469;28;20213;-79
2022/03/06 09:52:16;;;;;;;10.23;7.07;;;5.20;62.20;;;;;;5043230;28;20235;-80
2022/03/06 09:55:06;;;;;;;12.67;8.10;;;5.40;61.30;;;;;;5041118;28;20223;-79
2022/03/06 09:57:56;;;;;;;10.97;7.70;;;5.30;61.80;;;;;;5045302;28;20273;-78
2022/03/06 10:00:47;;;;;;;11.87;7.93;;;5.40;62.30;;;;;;5053620;28;20229;-78
2022/03/06 10:03:36;;;;;;;12.73;7.70;;;5.60;61.60;;;;;;5040658;28;20225;-79
2022/03/06 10:06:28;;;;;;;10.83;7.33;;;5.50;61.80;;;;;;5039528;28;20306;-80
2022/03/06 10:09:19;;;;;;;10.90;7.77;;;5.70;60.50;;;;;;5044549;28;20232;-82
2022/03/06 10:12:18;;;;;;;15.50;8.70;;;5.60;61.30;;;;;;5040869;28;20229;-78
2022/03/06 10:15:10;;;;;;;14.27;9.30;;;5.70;60.90;;;;;;5040340;28;20235;-79
2022/03/06 10:18:04;;;;;;;11.97;8.27;;;5.80;60.50;;;;;;5033281;28;20225;-79
2022/03/06 10:20:53;;;;;;;12.30;7.97;;;5.90;60.10;;;;;;5042806;28;20224;-79
2022/03/06 10:23:42;;;;;;;10.70;7.87;;;5.90;59.90;;;;;;5041786;28;20231;-78
2022/03/06 10:26:33;;;;;;;12.93;8.47;;;5.50;59.80;;;;;;5042256;28;20282;-77
2022/03/06 10:29:26;;;;;;;12.07;8.30;;;5.70;60.40;;;;;;5038309;28;20224;-79
2022/03/06 10:32:15;;;;;;;11.47;8.07;;;5.60;60.70;;;;;;5030666;28;20228;-79
2022/03/06 10:35:06;;;;;;;12.30;8.00;;;5.40;60.50;;;;;;5039935;28;20225;-80
2022/03/06 10:37:55;;;;;;;11.57;7.80;;;5.50;61.30;;;;;;5040069;28;20221;-76
2022/03/06 10:40:43;;;;;;;12.37;8.10;;;5.10;62.40;;;;;;5037234;28;20786;-77
2022/03/06 10:43:34;;;;;;;11.97;8.10;;;5.20;62.90;;;;;;5042381;28;20225;-77
2022/03/06 10:46:22;;;;;;;11.90;8.40;;;5.20;62.30;;;;;;5043559;28;20229;-79
2022/03/06 10:49:15;;;;;;;11.63;8.40;;;5.10;63.30;;;;;;5037806;28;20327;-79
2022/03/06 10:52:17;;;;;;;12.33;8.93;;;5.20;63.30;;;;;;5053738;28;20228;-80
2022/03/06 10:55:06;;;;;;;12.00;8.47;;;4.90;63.70;;;;;;5043595;28;20228;-79
2022/03/06 10:57:57;;;;;;;10.33;7.93;;;5.10;63.00;;;;;;5036888;28;20228;-79
2022/03/06 11:00:47;;;;;;;13.37;8.53;;;5.20;62.40;;;;;;5037965;28;20734;-78
2022/03/06 11:03:36;;;;;;;11.87;8.57;;;5.40;62.40;;;;;;5038574;28;20726;-78
2022/03/06 11:06:26;;;;;;;9.50;7.70;;;5.30;62.20;;;;;;5037693;28;20727;-78
2022/03/06 11:09:17;;;;;;;12.97;8.50;;;5.30;62.00;;;;;;5041323;28;20244;-80
2022/03/06 11:12:07;;;;;;;12.23;8.10;;;5.30;62.20;;;;;;5027495;28;20220;-82
2022/03/06 11:14:58;;;;;;;12.63;7.57;;;5.40;62.00;;;;;;5032309;28;20226;-81
2022/03/06 11:17:47;;;;;;;10.43;7.13;;;5.50;61.80;;;;;;5035959;28;20243;-81
2022/03/06 11:20:39;;;;;;;11.43;7.67;;;5.50;61.60;;;;;;5045998;28;20233;-81
2022/03/06 11:23:34;;;;;;;13.50;8.10;;;5.60;62.00;;;;;;5045907;28;20664;-82
2022/03/06 11:27:05;;;;;;;9.83;7.30;;;5.70;61.50;;;;;;5040766;28;20679;-75
2022/03/06 11:30:08;;;;;;;8.43;6.60;;;5.80;61.30;;;;;;5034495;28;20217;-74
2022/03/06 11:33:03;;;;;;;10.80;7.33;;;5.70;62.30;;;;;;5024739;28;20227;-75
2022/03/06 11:35:52;;;;;;;8.13;6.83;;;5.90;61.40;;;;;;5038794;28;20236;-76
2022/03/06 11:38:44;;;;;;;11.13;7.37;;;6.10;61.00;;;;;;5036844;28;20712;-76
2022/03/06 11:41:37;;;;;;;9.37;6.70;;;6.00;61.30;;;;;;5037581;28;20225;-75
2022/03/06 11:44:33;;;;;;;10.53;6.20;;;5.80;61.30;;;;;;5028696;28;20305;-76
2022/03/06 11:47:40;;;;;;;8.50;6.00;;;5.70;61.50;;;;;;5038823;28;20961;-75
2022/03/06 11:50:31;;;;;;;8.13;5.90;;;4.90;62.60;;;;;;5035972;28;20419;-75
2022/03/06 11:53:21;;;;;;;8.77;6.30;;;4.50;63.60;;;;;;5039285;28;20244;-76
2022/03/06 11:56:45;;;;;;;8.17;5.80;;;4.70;64.00;;;;;;5047930;28;20306;-76
2022/03/06 11:59:47;;;;;;;9.47;6.50;;;4.30;64.20;;;;;;5039632;28;20225;-75
2022/03/06 12:02:45;;;;;;;8.63;6.70;;;4.30;65.50;;;;;;5035950;28;20293;-76
2022/03/06 12:05:48;;;;;;;7.50;5.93;;;4.20;64.90;;;;;;5034601;28;20231;-75
2022/03/06 12:08:42;;;;;;;8.90;6.27;;;4.30;65.30;;;;;;5045468;28;20210;-74
2022/03/06 12:11:32;;;;;;;8.80;5.87;;;4.50;65.00;;;;;;5037581;28;20306;-76
2022/03/06 12:14:24;;;;;;;8.50;6.13;;;4.30;65.10;;;;;;5038659;28;20223;-75
2022/03/06 12:17:35;;;;;;;8.13;5.77;;;4.20;65.60;;;;;;5035307;28;20272;-76
2022/03/06 12:20:28;;;;;;;7.13;5.40;;;4.30;66.20;;;;;;5035750;28;20239;-75
2022/03/06 12:23:25;;;;;;;11.03;6.40;;;4.60;66.00;;;;;;5034411;28;20258;-76
2022/03/06 12:26:14;;;;;;;13.07;6.67;;;4.80;65.30;;;;;;5036991;28;20228;-75
2022/03/06 12:29:06;;;;;;;9.93;6.00;;;4.90;65.50;;;;;;5051556;28;20232;-76
2022/03/06 12:31:55;;;;;;;9.00;5.33;;;4.80;65.80;;;;;;5036322;28;20215;-75
2022/03/06 12:34:48;;;;;;;8.37;5.77;;;5.10;65.00;;;;;;5040708;28;20221;-75
2022/03/06 12:37:41;;;;;;;8.87;5.93;;;5.20;64.90;;;;;;5030670;28;20323;-75
2022/03/06 12:40:31;;;;;;;8.83;5.67;;;5.20;65.20;;;;;;5037547;28;20221;-75
2022/03/06 12:43:22;;;;;;;8.27;5.17;;;5.00;64.90;;;;;;5034997;28;20228;-75
2022/03/06 12:46:11;;;;;;;8.13;5.07;;;5.10;64.40;;;;;;5051214;28;20229;-75
2022/03/06 12:49:00;;;;;;;7.73;5.23;;;5.30;64.40;;;;;;5028110;28;20690;-74
2022/03/06 12:51:51;;;;;;;8.33;5.50;;;5.20;63.80;;;;;;5043401;28;20724;-74
2022/03/06 12:54:41;;;;;;;8.07;5.40;;;5.10;63.90;;;;;;5037688;28;20223;-73
2022/03/06 12:57:32;;;;;;;9.70;5.30;;;4.80;63.70;;;;;;5035727;28;20236;-75
2022/03/06 13:00:23;;;;;;;10.07;5.03;;;4.80;64.10;;;;;;5036724;28;20648;-77
2022/03/06 13:03:13;;;;;;;8.07;5.10;;;5.00;63.80;;;;;;5036152;28;21686;-76
2022/03/06 13:06:13;;;;;;;8.20;4.97;;;5.30;63.30;;;;;;5036524;28;20232;-76
2022/03/06 13:09:04;;;;;;;6.00;4.67;;;5.30;63.40;;;;;;5038454;28;20767;-76
2022/03/06 13:11:55;;;;;;;9.47;5.60;;;5.30;62.70;;;;;;5032859;28;20224;-76
2022/03/06 13:14:44;;;;;;;9.47;5.40;;;5.20;63.80;;;;;;5037336;28;20457;-76
2022/03/06 13:17:33;;;;;;;7.00;5.20;;;5.20;64.20;;;;;;5035475;28;20225;-76
2022/03/06 13:20:22;;;;;;;8.73;5.47;;;5.20;63.90;;;;;;5036223;28;20239;-77
2022/03/06 13:23:19;;;;;;;18.60;13.57;;;5.30;63.60;;;;;;5034379;28;20239;-78
2022/03/06 13:26:09;;;;;;;8.23;5.87;;;5.30;64.70;;;;;;5036737;28;20318;-76
2022/03/06 13:29:00;;;;;;;12.97;7.90;;;5.30;64.50;;;;;;5037910;28;20228;-77
2022/03/06 13:31:48;;;;;;;7.43;5.30;;;5.40;64.90;;;;;;5038154;28;20267;-78
2022/03/06 13:34:44;;;;;;;8.27;5.17;;;5.50;65.30;;;;;;5035797;28;20273;-78
2022/03/06 13:37:38;;;;;;;7.73;5.00;;;5.30;65.50;;;;;;5036196;28;20244;-77
2022/03/06 13:40:28;;;;;;;10.40;5.60;;;5.10;65.40;;;;;;5035877;28;20978;-78
2022/03/06 13:43:19;;;;;;;9.63;6.17;;;5.30;65.60;;;;;;5031919;28;20264;-79
2022/03/06 13:46:12;;;;;;;11.77;7.03;;;5.20;65.50;;;;;;5021713;28;20237;-78
2022/03/06 13:49:15;;;;;;;17.13;10.27;;;5.30;65.80;;;;;;5036118;28;20320;-76
2022/03/06 13:52:07;;;;;;;8.70;6.40;;;5.00;66.10;;;;;;5037658;28;20224;-76
2022/03/06 13:55:04;;;;;;;11.10;7.57;;;5.00;66.50;;;;;;5032426;28;20717;-76
2022/03/06 13:58:00;;;;;;;11.60;7.80;;;5.00;66.60;;;;;;5047834;28;20232;-77
2022/03/06 14:00:51;;;;;;;9.60;7.23;;;4.90;66.60;;;;;;5035771;28;20297;-76
2022/03/06 14:03:44;;;;;;;13.07;7.30;;;4.90;66.80;;;;;;5037071;28;20259;-76
2022/03/06 14:06:44;;;;;;;11.17;7.43;;;5.10;66.70;;;;;;5033587;28;20231;-76
2022/03/06 14:09:33;;;;;;;9.80;7.27;;;5.00;66.80;;;;;;5029835;28;20404;-76
2022/03/06 14:12:21;;;;;;;11.40;8.53;;;4.90;66.70;;;;;;5035829;28;20230;-76
2022/03/06 14:15:23;;;;;;;12.00;8.57;;;4.90;66.80;;;;;;5033518;28;20223;-76
2022/03/06 14:18:12;;;;;;;12.03;8.97;;;4.70;66.50;;;;;;5048145;28;20828;-75
2022/03/06 14:21:09;;;;;;;11.03;8.77;;;4.80;67.00;;;;;;5036776;28;20236;-75
2022/03/06 14:23:59;;;;;;;14.17;9.73;;;4.70;67.80;;;;;;5034514;28;20351;-76
2022/03/06 14:26:50;;;;;;;16.57;11.73;;;4.90;66.50;;;;;;5034562;28;20251;-75
2022/03/06 14:29:42;;;;;;;31.50;20.27;;;4.80;66.70;;;;;;5039740;28;20219;-76
2022/03/06 14:32:31;;;;;;;13.33;10.03;;;4.60;66.40;;;;;;5039113;28;20418;-76
2022/03/06 14:35:20;;;;;;;18.20;10.93;;;4.80;66.10;;;;;;5041650;28;20303;-76
2022/03/06 14:38:10;;;;;;;17.70;13.00;;;4.60;66.60;;;;;;5048346;28;20312;-75
2022/03/06 14:41:00;;;;;;;19.73;14.00;;;4.50;67.50;;;;;;5046994;28;20221;-74
2022/03/06 14:43:49;;;;;;;23.10;15.57;;;4.60;68.00;;;;;;5037068;28;20357;-76
2022/03/06 14:46:42;;;;;;;23.43;16.43;;;4.50;68.20;;;;;;5040637;28;20227;-75
2022/03/06 14:49:31;;;;;;;23.60;16.70;;;4.50;68.50;;;;;;5041203;28;20334;-75
2022/03/06 14:52:20;;;;;;;23.50;16.17;;;4.30;67.90;;;;;;5049815;28;20713;-76